Time;durP1;ratioP1;P1;durP2;ratioP2;P2;SDS_P1;SDS_P2;PMS_P1;PMS_P2;Temp;Humidity;BMP_temperature;BMP_pressure;BME280_temperature;BME280_humidity;BME280_pressure;Samples;Min_cycle;Max_cycle;Signal;HPM_P1;HPM_P2
2022/04/21 00:00:59;;;;;;;8.52;2.70;;;;;;;;;;7395602;19;20079;-83
2022/04/21 00:03:24;;;;;;;1.95;1.35;;;;;;;;;;7391025;19;20006;-82
2022/04/21 00:05:49;;;;;;;2.55;1.52;;;;;;;;;;7393900;19;20010;-82
2022/04/21 00:08:17;;;;;;;2.22;1.65;;;;;;;;;;7392690;19;20010;-83
2022/04/21 00:10:43;;;;;;;4.53;1.88;;;;;;;;;;7392909;19;20018;-82
2022/04/21 00:13:08;;;;;;;3.05;1.90;;;;;;;;;;7396083;19;20186;-82
2022/04/21 00:15:33;;;;;;;4.03;1.75;;;;;;;;;;7396710;19;20115;-82
2022/04/21 00:17:59;;;;;;;3.15;1.90;;;;;;;;;;7392767;19;20054;-82
2022/04/21 00:20:24;;;;;;;2.17;1.63;;;;;;;;;;7393611;19;20018;-82
2022/04/21 00:25:34;;;;;;;2.88;1.92;;;;;;;;;;7394975;19;20690;-83
2022/04/21 00:27:59;;;;;;;3.45;1.83;;;;;;;;;;7392587;19;20010;-82
2022/04/21 00:30:25;;;;;;;3.47;1.80;;;;;;;;;;7391337;19;20010;-82
2022/04/21 00:32:50;;;;;;;5.53;1.73;;;;;;;;;;7395381;19;20011;-82
2022/04/21 00:35:17;;;;;;;3.95;2.00;;;;;;;;;;7407818;19;20330;-83
2022/04/21 00:37:56;;;;;;;2.40;1.70;;;;;;;;;;7408024;19;20057;-82
2022/04/21 00:40:26;;;;;;;2.55;1.52;;;;;;;;;;7407413;19;20102;-82
2022/04/21 00:42:52;;;;;;;2.50;1.58;;;;;;;;;;7410250;19;21097;-82
2022/04/21 00:45:17;;;;;;;4.15;1.50;;;;;;;;;;7410027;19;20002;-82
2022/04/21 00:47:45;;;;;;;2.83;1.60;;;;;;;;;;7406071;19;20015;-82
2022/04/21 00:50:16;;;;;;;1.92;1.48;;;;;;;;;;7406251;19;20026;-82
2022/04/21 00:52:42;;;;;;;4.25;1.42;;;;;;;;;;7407528;19;20022;-82
2022/04/21 00:55:08;;;;;;;1.88;1.48;;;;;;;;;;7410345;19;20014;-82
2022/04/21 00:57:34;;;;;;;1.80;1.38;;;;;;;;;;7406880;19;20030;-82
2022/04/21 01:00:01;;;;;;;2.78;1.73;;;;;;;;;;7408174;19;20095;-82
2022/04/21 01:02:46;;;;;;;5.80;1.90;;;;;;;;;;7407411;19;20100;-82
2022/04/21 01:05:12;;;;;;;1.70;1.25;;;;;;;;;;7409770;19;20002;-82
2022/04/21 01:07:37;;;;;;;2.72;1.48;;;;;;;;;;7408824;19;20017;-82
2022/04/21 01:10:03;;;;;;;2.28;1.65;;;;;;;;;;7404263;19;20017;-82
2022/04/21 01:12:30;;;;;;;1.70;1.50;;;;;;;;;;7407795;19;20011;-82
2022/04/21 01:14:56;;;;;;;3.05;1.90;;;;;;;;;;7407733;19;20006;-82
2022/04/21 01:17:30;;;;;;;3.60;1.83;;;;;;;;;;7403947;19;20014;-82
2022/04/21 01:19:56;;;;;;;2.35;1.60;;;;;;;;;;7407767;19;20503;-81
2022/04/21 01:22:21;;;;;;;4.32;1.40;;;;;;;;;;7408712;19;20010;-84
2022/04/21 01:24:46;;;;;;;2.53;1.45;;;;;;;;;;7408666;19;20054;-82
2022/04/21 01:27:12;;;;;;;1.50;1.17;;;;;;;;;;7405823;19;20027;-82
2022/04/21 01:29:37;;;;;;;1.65;1.10;;;;;;;;;;7404413;19;20090;-82
2022/04/21 01:32:03;;;;;;;4.00;1.58;;;;;;;;;;7406023;19;20011;-82
2022/04/21 01:34:28;;;;;;;2.05;1.67;;;;;;;;;;7406885;19;20367;-81
2022/04/21 01:42:21;;;;;;;1.85;1.35;;;;;;;;;;7410151;19;20052;-82
2022/04/21 01:44:46;;;;;;;3.30;1.73;;;;;;;;;;7404195;19;20015;-82
2022/04/21 01:47:12;;;;;;;4.47;1.80;;;;;;;;;;7399441;19;20490;-82
2022/04/21 01:49:37;;;;;;;2.58;1.40;;;;;;;;;;7399651;19;20014;-81
2022/04/21 01:52:02;;;;;;;4.15;1.60;;;;;;;;;;7399361;19;20222;-82
2022/04/21 01:54:28;;;;;;;3.45;1.73;;;;;;;;;;7395258;19;20362;-82
2022/04/21 01:56:53;;;;;;;3.38;1.63;;;;;;;;;;7400526;19;20041;-82
2022/04/21 01:59:18;;;;;;;2.20;1.55;;;;;;;;;;7398270;19;20009;-82
2022/04/21 02:01:44;;;;;;;1.50;1.08;;;;;;;;;;7396309;19;20024;-82
2022/04/21 02:04:09;;;;;;;2.90;1.52;;;;;;;;;;7397920;19;20015;-81
2022/04/21 02:06:34;;;;;;;1.50;1.20;;;;;;;;;;7396480;19;20082;-82
2022/04/21 02:09:00;;;;;;;1.90;1.25;;;;;;;;;;7398029;19;20013;-82
2022/04/21 02:11:25;;;;;;;2.92;1.38;;;;;;;;;;7401398;19;20090;-82
2022/04/21 02:13:52;;;;;;;2.83;1.48;;;;;;;;;;7403704;19;19998;-82
2022/04/21 02:16:17;;;;;;;3.08;1.45;;;;;;;;;;7401592;19;20015;-82
2022/04/21 02:18:43;;;;;;;4.78;1.45;;;;;;;;;;7398668;19;20038;-81
2022/04/21 02:21:08;;;;;;;2.00;1.13;;;;;;;;;;7397744;19;20011;-81
2022/04/21 02:23:33;;;;;;;3.50;1.63;;;;;;;;;;7401584;19;20658;-82
2022/04/21 02:25:58;;;;;;;2.17;1.17;;;;;;;;;;7401695;19;20032;-81
2022/04/21 02:28:25;;;;;;;5.15;1.40;;;;;;;;;;7398861;19;20014;-82
2022/04/21 02:30:50;;;;;;;3.40;1.70;;;;;;;;;;7400566;19;20481;-82
2022/04/21 02:33:15;;;;;;;2.83;1.60;;;;;;;;;;7399712;19;20010;-82
2022/04/21 02:35:41;;;;;;;3.10;2.08;;;;;;;;;;7404263;19;20010;-82
2022/04/21 02:38:06;;;;;;;2.60;1.58;;;;;;;;;;7399471;19;20480;-81
2022/04/21 02:40:31;;;;;;;3.08;1.83;;;;;;;;;;7400041;19;20099;-81
2022/04/21 02:42:57;;;;;;;3.15;1.73;;;;;;;;;;7400658;19;20014;-82
2022/04/21 02:45:22;;;;;;;4.63;1.80;;;;;;;;;;7401761;19;20015;-82
2022/04/21 02:47:48;;;;;;;3.08;1.48;;;;;;;;;;7399759;19;20580;-82
2022/04/21 02:50:16;;;;;;;3.17;1.60;;;;;;;;;;7401993;19;20020;-81
2022/04/21 02:52:42;;;;;;;2.38;1.45;;;;;;;;;;7405378;19;20036;-82
2022/04/21 02:57:53;;;;;;;2.10;1.50;;;;;;;;;;7402773;19;20023;-81
2022/04/21 03:00:19;;;;;;;1.50;0.98;;;;;;;;;;7403660;19;20047;-82
2022/04/21 03:02:44;;;;;;;3.78;1.45;;;;;;;;;;7404261;19;20006;-81
2022/04/21 03:05:11;;;;;;;1.70;1.33;;;;;;;;;;7400188;19;19999;-82
2022/04/21 03:07:36;;;;;;;1.63;1.20;;;;;;;;;;7394662;19;20007;-82
2022/04/21 03:10:01;;;;;;;2.13;1.25;;;;;;;;;;7396637;19;20006;-81
2022/04/21 03:12:28;;;;;;;2.38;1.35;;;;;;;;;;7397825;19;20010;-82
2022/04/21 03:14:55;;;;;;;1.45;1.00;;;;;;;;;;7399133;19;20035;-82
2022/04/21 03:17:21;;;;;;;2.15;1.23;;;;;;;;;;7394320;19;20052;-82
2022/04/21 03:19:46;;;;;;;3.17;1.40;;;;;;;;;;7397206;19;20014;-82
2022/04/21 03:25:01;;;;;;;2.17;1.10;;;;;;;;;;7398148;19;20031;-82
2022/04/21 03:27:29;;;;;;;2.08;1.40;;;;;;;;;;7394574;19;20035;-82
2022/04/21 03:30:06;;;;;;;3.33;1.88;;;;;;;;;;7398159;19;20030;-82
2022/04/21 03:32:31;;;;;;;2.22;1.20;;;;;;;;;;7395206;19;20032;-81
2022/04/21 03:34:59;;;;;;;1.95;1.50;;;;;;;;;;7397476;19;20006;-82
2022/04/21 03:37:24;;;;;;;2.83;1.58;;;;;;;;;;7397191;19;20049;-81
2022/04/21 03:39:49;;;;;;;3.70;2.05;;;;;;;;;;7394952;19;20002;-81
2022/04/21 03:42:20;;;;;;;2.63;1.23;;;;;;;;;;7388902;19;20030;-82
2022/04/21 03:44:45;;;;;;;2.03;1.55;;;;;;;;;;7399832;19;20018;-84
2022/04/21 03:47:11;;;;;;;2.10;1.42;;;;;;;;;;7386333;19;20011;-80
2022/04/21 03:49:36;;;;;;;2.58;1.58;;;;;;;;;;7389117;19;20003;-82
2022/04/21 03:52:02;;;;;;;2.92;1.98;;;;;;;;;;7388869;19;20113;-82
2022/04/21 03:54:27;;;;;;;4.60;2.28;;;;;;;;;;7391687;19;20021;-82
2022/04/21 03:56:53;;;;;;;7.38;2.10;;;;;;;;;;7394406;19;20006;-82
2022/04/21 03:59:20;;;;;;;3.15;1.83;;;;;;;;;;7391091;19;20022;-81
2022/04/21 04:01:45;;;;;;;2.25;1.55;;;;;;;;;;7390971;19;20043;-82
2022/04/21 04:04:11;;;;;;;3.50;1.63;;;;;;;;;;7392621;19;20006;-82
2022/04/21 04:12:06;;;;;;;2.47;1.45;;;;;;;;;;7420223;19;20031;-80
2022/04/21 04:14:32;;;;;;;2.80;1.80;;;;;;;;;;7416405;19;20023;-80
2022/04/21 04:16:57;;;;;;;2.85;1.73;;;;;;;;;;7421485;19;20010;-81
2022/04/21 04:19:23;;;;;;;2.10;1.73;;;;;;;;;;7398108;19;20007;-82
2022/04/21 04:21:48;;;;;;;3.20;1.90;;;;;;;;;;7394661;19;20006;-83
2022/04/21 04:24:13;;;;;;;2.97;2.10;;;;;;;;;;7390587;19;20070;-82
2022/04/21 04:26:39;;;;;;;3.47;1.83;;;;;;;;;;7393919;19;20034;-83
2022/04/21 04:29:04;;;;;;;5.35;1.98;;;;;;;;;;7389472;19;20021;-83
2022/04/21 04:31:31;;;;;;;3.72;2.20;;;;;;;;;;7390031;19;20010;-81
2022/04/21 04:34:01;;;;;;;3.47;2.00;;;;;;;;;;7392494;19;20494;-81
2022/04/21 04:36:27;;;;;;;2.78;1.75;;;;;;;;;;7393795;19;20040;-82
2022/04/21 04:38:52;;;;;;;2.97;1.70;;;;;;;;;;7395681;19;20014;-81
2022/04/21 04:51:52;;;;;;;2.67;1.77;;;;;;;;;;7398180;19;20007;-82
2022/04/21 04:55:14;;;;;;;4.05;1.90;;;;;;;;;;7394527;19;20133;-83
2022/04/21 05:13:03;;;;;;;2.40;1.90;;;;;;;;;;7418948;19;20018;-81
2022/04/21 05:15:30;;;;;;;3.10;2.03;;;;;;;;;;7417601;19;20002;-86
2022/04/21 05:25:04;;;;;;;5.32;2.22;;;;;;;;;;7406062;19;19997;-81
2022/04/21 05:28:43;;;;;;;5.85;2.80;;;;;;;;;;7400769;19;20014;-79
2022/04/21 05:31:16;;;;;;;5.43;2.45;;;;;;;;;;7324810;19;20025;-81
2022/04/21 05:33:45;;;;;;;7.60;2.88;;;;;;;;;;7392996;19;20006;-84
2022/04/21 05:36:12;;;;;;;7.88;3.10;;;;;;;;;;7399774;19;19994;-88
2022/04/21 05:38:38;;;;;;;4.95;3.20;;;;;;;;;;7401210;19;20032;-82
2022/04/21 05:41:04;;;;;;;4.90;3.35;;;;;;;;;;7395451;19;20007;-84
2022/04/21 05:43:44;;;;;;;4.35;2.92;;;;;;;;;;7391585;19;20007;-84
2022/04/21 05:46:12;;;;;;;4.30;2.55;;;;;;;;;;7395020;19;20376;-83
2022/04/21 05:48:38;;;;;;;5.85;3.22;;;;;;;;;;7404487;19;20842;-84
2022/04/21 05:51:05;;;;;;;5.15;3.00;;;;;;;;;;7403362;19;20463;-85
2022/04/21 05:53:34;;;;;;;10.85;3.10;;;;;;;;;;7400909;19;20022;-83
2022/04/21 05:56:00;;;;;;;6.82;3.42;;;;;;;;;;7410169;19;20361;-81
2022/04/21 05:58:26;;;;;;;6.90;3.45;;;;;;;;;;7411904;19;20031;-81
2022/04/21 06:00:51;;;;;;;5.68;3.88;;;;;;;;;;7409204;19;19991;-83
2022/04/21 06:50:18;;;;;;;6.82;4.20;;;;;;;;;;7398611;19;20516;-81
2022/04/21 07:00:01;;;;;;;5.28;3.88;;;;;;;;;;7401717;19;19994;-80
2022/04/21 07:03:01;;;;;;;6.35;3.80;;;;;;;;;;7398120;19;20070;-80
2022/04/21 07:09:09;;;;;;;4.82;3.13;;;;;;;;;;7399439;19;20017;-81
2022/04/21 07:12:07;;;;;;;5.57;3.85;;;;;;;;;;7398568;19;20033;-82
2022/04/21 07:39:40;;;;;;;4.00;3.35;;;;;;;;;;7399601;19;20479;-81
2022/04/21 07:42:06;;;;;;;5.32;3.25;;;;;;;;;;7394972;19;20038;-83
2022/04/21 07:44:34;;;;;;;3.97;3.45;;;;;;;;;;7392754;19;20123;-79
2022/04/21 07:47:00;;;;;;;7.03;3.70;;;;;;;;;;7396287;19;20078;-82
2022/04/21 07:54:54;;;;;;;5.90;3.75;;;;;;;;;;7401085;19;20045;-81
2022/04/21 07:57:20;;;;;;;6.45;4.13;;;;;;;;;;7393156;19;20018;-81
2022/04/21 07:59:46;;;;;;;6.03;3.50;;;;;;;;;;7395192;19;20049;-82
2022/04/21 08:02:12;;;;;;;5.20;3.83;;;;;;;;;;7393670;19;20379;-82
2022/04/21 08:04:38;;;;;;;5.25;3.28;;;;;;;;;;7401485;19;20487;-83
2022/04/21 08:07:04;;;;;;;5.38;3.78;;;;;;;;;;7393402;19;20124;-78
2022/04/21 08:09:29;;;;;;;4.38;3.08;;;;;;;;;;7392136;19;20025;-80
2022/04/21 08:11:56;;;;;;;5.05;3.58;;;;;;;;;;7396170;19;20003;-83
2022/04/21 08:14:22;;;;;;;5.07;3.58;;;;;;;;;;7399508;19;20023;-85
2022/04/21 08:16:47;;;;;;;5.22;3.63;;;;;;;;;;7399793;19;20062;-81
2022/04/21 08:19:13;;;;;;;5.25;3.55;;;;;;;;;;7406859;19;20043;-82
2022/04/21 08:21:38;;;;;;;8.13;3.53;;;;;;;;;;7406639;19;20006;-83
2022/04/21 08:32:37;;;;;;;5.88;3.75;;;;;;;;;;7417554;19;20047;-82
2022/04/21 08:35:05;;;;;;;5.57;3.95;;;;;;;;;;7422563;19;20038;-81
2022/04/21 08:37:36;;;;;;;5.00;3.88;;;;;;;;;;7419364;19;20033;-83
2022/04/21 08:40:23;;;;;;;5.72;3.55;;;;;;;;;;7420093;19;20023;-82
2022/04/21 08:59:30;;;;;;;4.72;3.63;;;;;;;;;;7427493;19;20056;-82
2022/04/21 10:04:11;;;;;;;5.38;3.85;;;;;;;;;;7382656;19;20003;-84
2022/04/21 13:06:42;;;;;;;;;;;;;;;;;;7341990;19;19995;-82
2022/04/21 14:46:21;;;;;;;4.55;2.92;;;;;;;;;;7405062;19;20014;-81
2022/04/21 14:48:47;;;;;;;3.60;2.92;;;;;;;;;;7397920;19;20011;-82
2022/04/21 14:51:12;;;;;;;5.72;3.00;;;;;;;;;;7397662;19;20530;-81
2022/04/21 14:53:39;;;;;;;4.60;3.17;;;;;;;;;;7395858;19;20360;-81
2022/04/21 14:56:04;;;;;;;3.42;3.03;;;;;;;;;;7396991;19;20013;-82
2022/04/21 14:58:29;;;;;;;7.18;3.40;;;;;;;;;;7394254;19;19991;-81
2022/04/21 15:00:55;;;;;;;3.95;3.35;;;;;;;;;;7396634;19;20070;-82
2022/04/21 15:11:05;;;;;;;;;;;;;;;;;;;;;
2022/04/21 15:13:07;;;;;;;6.30;3.40;;;;;;;;;;7394686;19;20010;-81
2022/04/21 15:19:43;;;;;;;4.18;3.30;;;;;;;;;;7390433;19;20625;-81
2022/04/21 15:22:22;;;;;;;6.10;3.35;;;;;;;;;;7391193;19;20015;-81
2022/04/21 15:24:54;;;;;;;5.15;3.50;;;;;;;;;;7398787;19;20018;-81
2022/04/21 15:27:32;;;;;;;;;;;;;;;;;;;;;
2022/04/21 15:42:19;;;;;;;4.88;3.78;;;;;;;;;;7403665;19;20070;-82
2022/04/21 15:44:44;;;;;;;3.80;2.85;;;;;;;;;;7403692;19;20351;-83
2022/04/21 15:47:10;;;;;;;7.03;4.85;;;;;;;;;;7394650;19;20013;-81
2022/04/21 15:49:36;;;;;;;5.07;3.38;;;;;;;;;;7390818;19;20020;-81
2022/04/21 15:52:02;;;;;;;3.95;3.20;;;;;;;;;;7392698;19;20011;-81
2022/04/21 15:59:57;;;;;;;4.93;3.05;;;;;;;;;;7394938;19;20013;-80
2022/04/21 16:02:23;;;;;;;4.07;3.30;;;;;;;;;;7387095;19;20027;-81
2022/04/21 16:04:49;;;;;;;3.67;3.10;;;;;;;;;;7393527;19;20002;-81
2022/04/21 16:07:35;;;;;;;3.92;3.30;;;;;;;;;;7390102;19;20483;-82
2022/04/21 16:10:01;;;;;;;4.13;3.00;;;;;;;;;;7392915;19;20006;-82
2022/04/21 16:12:27;;;;;;;3.60;3.10;;;;;;;;;;7388679;19;20034;-81
2022/04/21 16:14:53;;;;;;;8.90;3.92;;;;;;;;;;7393086;19;20439;-82
2022/04/21 16:17:18;;;;;;;3.35;3.00;;;;;;;;;;7390833;19;20510;-82
2022/04/21 16:19:44;;;;;;;3.55;2.83;;;;;;;;;;7391770;19;20017;-82
2022/04/21 16:22:09;;;;;;;5.43;3.05;;;;;;;;;;7388644;19;20015;-82
2022/04/21 16:24:35;;;;;;;4.72;3.28;;;;;;;;;;7393682;19;20014;-82
2022/04/21 16:27:00;;;;;;;5.22;3.05;;;;;;;;;;7391868;19;20031;-82
2022/04/21 16:29:25;;;;;;;3.90;2.35;;;;;;;;;;7390644;19;20327;-78
2022/04/21 16:31:55;;;;;;;3.55;2.72;;;;;;;;;;7386274;19;20130;-80
2022/04/21 16:34:21;;;;;;;6.18;2.63;;;;;;;;;;7390359;19;20014;-81
2022/04/21 16:36:46;;;;;;;4.70;2.65;;;;;;;;;;7388590;19;20025;-80
2022/04/21 16:39:11;;;;;;;3.03;2.65;;;;;;;;;;7393828;19;20074;-82
2022/04/21 16:41:38;;;;;;;2.80;2.30;;;;;;;;;;7362040;19;20002;-81
2022/04/21 16:44:03;;;;;;;3.17;2.80;;;;;;;;;;7390320;19;20011;-81
2022/04/21 16:46:29;;;;;;;3.22;2.50;;;;;;;;;;7391952;19;20018;-81
2022/04/21 16:48:54;;;;;;;5.03;2.38;;;;;;;;;;7386636;19;20021;-81
2022/04/21 16:51:20;;;;;;;4.38;2.80;;;;;;;;;;7390742;19;20024;-82
2022/04/21 16:53:45;;;;;;;5.53;2.78;;;;;;;;;;7390862;19;20011;-82
2022/04/21 16:56:11;;;;;;;3.72;2.90;;;;;;;;;;7390568;19;20002;-82
2022/04/21 16:58:36;;;;;;;3.83;2.72;;;;;;;;;;7391885;19;20084;-80
2022/04/21 17:03:48;;;;;;;3.47;2.78;;;;;;;;;;7386964;19;20025;-82
2022/04/21 17:06:13;;;;;;;5.53;2.80;;;;;;;;;;7394559;19;20049;-82
2022/04/21 17:08:39;;;;;;;3.13;2.67;;;;;;;;;;7391632;19;20502;-82
2022/04/21 17:11:06;;;;;;;3.90;2.88;;;;;;;;;;7391415;19;20024;-81
2022/04/21 17:17:20;;;;;;;9.15;3.15;;;;;;;;;;7402076;19;20008;-81
2022/04/21 17:34:07;;;;;;;5.93;3.03;;;;;;;;;;7392676;19;19994;-81
2022/04/21 17:44:50;;;;;;;4.18;2.50;;;;;;;;;;7398346;19;20014;-82
2022/04/21 17:48:20;;;;;;;;;;;;;;;;;;;;;
2022/04/21 18:05:27;;;;;;;9.32;2.80;;;;;;;;;;7395005;19;21095;-83
2022/04/21 18:08:26;;;;;;;5.05;3.03;;;;;;;;;;7396266;19;20052;-83
2022/04/21 18:18:07;;;;;;;3.70;2.85;;;;;;;;;;7390704;19;20017;-82
2022/04/21 18:20:52;;;;;;;5.38;2.78;;;;;;;;;;7392134;19;20408;-82
2022/04/21 18:23:17;;;;;;;12.98;3.05;;;;;;;;;;7392234;19;20018;-82
2022/04/21 18:25:43;;;;;;;6.63;3.17;;;;;;;;;;7402818;19;20431;-82
2022/04/21 18:28:09;;;;;;;5.63;2.65;;;;;;;;;;7395508;19;20003;-82
2022/04/21 18:30:38;;;;;;;4.15;2.70;;;;;;;;;;7390278;19;20009;-82
2022/04/21 18:33:05;;;;;;;3.47;2.90;;;;;;;;;;7390420;19;20031;-82
2022/04/21 18:35:31;;;;;;;4.43;2.78;;;;;;;;;;7396713;19;20028;-81
2022/04/21 18:37:57;;;;;;;5.15;2.80;;;;;;;;;;7394126;19;20099;-82
2022/04/21 18:40:22;;;;;;;3.30;2.67;;;;;;;;;;7390517;19;20010;-83
2022/04/21 18:42:48;;;;;;;4.55;2.67;;;;;;;;;;7394868;19;20468;-82
2022/04/21 18:45:13;;;;;;;3.65;2.80;;;;;;;;;;7396222;19;20056;-82
2022/04/21 18:47:40;;;;;;;3.70;2.75;;;;;;;;;;7396789;19;20022;-82
2022/04/21 18:50:11;;;;;;;4.82;2.88;;;;;;;;;;7395290;19;20031;-81
2022/04/21 18:52:37;;;;;;;4.05;2.78;;;;;;;;;;7395985;19;20015;-82
2022/04/21 18:55:06;;;;;;;2.83;2.40;;;;;;;;;;7398575;19;20056;-82
2022/04/21 19:00:23;;;;;;;7.13;2.67;;;;;;;;;;7397454;19;20599;-82
2022/04/21 19:02:51;;;;;;;2.63;2.38;;;;;;;;;;7396195;19;20003;-82
2022/04/21 19:05:29;;;;;;;4.00;2.95;;;;;;;;;;7393600;19;20002;-82
2022/04/21 19:08:15;;;;;;;5.70;3.55;;;;;;;;;;7393311;19;20022;-83
2022/04/21 19:10:46;;;;;;;6.55;2.90;;;;;;;;;;7394344;19;19990;-83
2022/04/21 19:13:15;;;;;;;3.70;2.60;;;;;;;;;;7392515;19;20211;-81
2022/04/21 19:15:45;;;;;;;5.88;2.47;;;;;;;;;;7395405;19;20019;-84
2022/04/21 19:18:37;;;;;;;4.00;2.97;;;;;;;;;;7393295;19;20017;-82
2022/04/21 19:21:06;;;;;;;3.90;1.98;;;;;;;;;;7395119;19;20015;-82
2022/04/21 19:23:32;;;;;;;4.53;3.00;;;;;;;;;;7392117;19;19999;-82
2022/04/21 19:26:00;;;;;;;4.53;2.50;;;;;;;;;;7395684;19;20007;-84
2022/04/21 19:28:27;;;;;;;3.22;2.80;;;;;;;;;;7393206;19;20029;-82
2022/04/21 19:31:46;;;;;;;3.97;2.70;;;;;;;;;;7392077;19;20006;-82
2022/04/21 19:44:43;;;;;;;5.80;2.90;;;;;;;;;;7390688;19;20038;-83
2022/04/21 19:47:34;;;;;;;3.40;2.50;;;;;;;;;;7383818;19;20007;-84
2022/04/21 19:50:57;;;;;;;3.20;2.15;;;;;;;;;;7388176;19;20089;-85
2022/04/21 19:57:48;;;;;;;3.60;2.40;;;;;;;;;;7391859;19;20380;-84
2022/04/21 20:04:26;;;;;;;6.60;2.65;;;;;;;;;;7390228;19;20531;-83
2022/04/21 20:10:41;;;;;;;3.22;2.25;;;;;;;;;;7388556;19;20329;-83
2022/04/21 20:14:06;;;;;;;3.15;2.15;;;;;;;;;;7388232;19;20078;-84
2022/04/21 20:27:34;;;;;;;3.53;2.35;;;;;;;;;;7392197;19;20008;-82
2022/04/21 21:04:10;;;;;;;2.88;2.00;;;;;;;;;;7395095;19;20502;-82
2022/04/21 21:09:19;;;;;;;2.85;2.20;;;;;;;;;;7395759;19;20467;-81
2022/04/21 21:11:47;;;;;;;2.30;2.10;;;;;;;;;;7391840;19;19999;-82
2022/04/21 21:14:13;;;;;;;3.72;2.13;;;;;;;;;;7395920;19;20014;-82
2022/04/21 21:16:42;;;;;;;2.30;2.08;;;;;;;;;;7392024;19;20006;-82
2022/04/21 21:19:11;;;;;;;2.40;1.90;;;;;;;;;;7393323;19;20015;-82
2022/04/21 21:21:37;;;;;;;5.03;2.78;;;;;;;;;;7394085;19;20010;-82
2022/04/21 21:24:03;;;;;;;1.98;1.75;;;;;;;;;;7394857;19;20646;-82
2022/04/21 21:26:28;;;;;;;2.55;1.90;;;;;;;;;;7394629;19;20020;-82
2022/04/21 21:28:53;;;;;;;3.40;2.17;;;;;;;;;;7389968;19;20114;-82
2022/04/21 21:31:19;;;;;;;2.13;1.63;;;;;;;;;;7393436;19;20018;-81
2022/04/21 21:33:44;;;;;;;4.80;2.08;;;;;;;;;;7392214;19;20097;-82
2022/04/21 21:36:09;;;;;;;3.17;2.20;;;;;;;;;;7393147;19;20329;-81
2022/04/21 21:38:35;;;;;;;4.63;2.35;;;;;;;;;;7393237;19;20407;-82
2022/04/21 21:41:01;;;;;;;2.33;1.92;;;;;;;;;;7392396;19;20020;-82
2022/04/21 21:43:27;;;;;;;2.75;2.30;;;;;;;;;;7396788;19;20018;-82
2022/04/21 21:45:52;;;;;;;2.85;2.03;;;;;;;;;;7394630;19;20022;-82
2022/04/21 21:53:46;;;;;;;3.67;1.98;;;;;;;;;;7395445;19;20450;-82
2022/04/21 21:56:12;;;;;;;3.88;2.22;;;;;;;;;;7392604;19;20002;-82
2022/04/21 21:58:37;;;;;;;3.53;2.20;;;;;;;;;;7393802;19;20011;-82
2022/04/21 22:01:03;;;;;;;2.30;2.10;;;;;;;;;;7393082;19;20002;-82
2022/04/21 22:03:28;;;;;;;3.22;1.95;;;;;;;;;;7390615;19;20078;-82
2022/04/21 22:05:53;;;;;;;3.47;2.15;;;;;;;;;;7394122;19;20011;-82
2022/04/21 22:08:19;;;;;;;3.22;2.13;;;;;;;;;;7396192;19;20316;-82
2022/04/21 22:10:44;;;;;;;19.35;3.22;;;;;;;;;;7391561;19;20014;-82
2022/04/21 22:13:09;;;;;;;12.88;2.25;;;;;;;;;;7392201;19;20014;-82
2022/04/21 22:15:36;;;;;;;2.75;1.98;;;;;;;;;;7390704;19;20010;-82
2022/04/21 22:18:01;;;;;;;4.30;2.60;;;;;;;;;;7393793;19;20455;-83
2022/04/21 22:20:27;;;;;;;2.90;2.08;;;;;;;;;;7393145;19;20030;-82
2022/04/21 22:22:53;;;;;;;4.03;2.65;;;;;;;;;;7391599;19;20031;-81
2022/04/21 22:25:19;;;;;;;4.88;2.30;;;;;;;;;;7390483;19;20007;-82
2022/04/21 22:27:44;;;;;;;4.28;2.65;;;;;;;;;;7394551;19;20017;-83
2022/04/21 22:30:10;;;;;;;4.50;2.30;;;;;;;;;;7389885;19;20321;-82
2022/04/21 22:32:49;;;;;;;3.42;2.47;;;;;;;;;;7391044;19;20011;-82
2022/04/21 22:35:18;;;;;;;2.83;1.92;;;;;;;;;;7391550;19;20039;-83
2022/04/21 22:37:44;;;;;;;6.93;2.05;;;;;;;;;;7392381;19;20025;-82
2022/04/21 22:40:10;;;;;;;3.75;2.45;;;;;;;;;;7391346;19;20352;-83
2022/04/21 22:42:36;;;;;;;2.83;2.17;;;;;;;;;;7389916;19;20026;-82
2022/04/21 22:45:05;;;;;;;2.70;2.35;;;;;;;;;;7393460;19;20117;-83
2022/04/21 22:47:30;;;;;;;4.68;2.35;;;;;;;;;;7395912;19;20029;-82
2022/04/21 22:49:56;;;;;;;4.85;2.72;;;;;;;;;;7390919;19;20440;-83
2022/04/21 22:52:23;;;;;;;3.25;2.58;;;;;;;;;;7389748;19;20027;-84
2022/04/21 22:54:48;;;;;;;3.10;2.20;;;;;;;;;;7393680;19;20450;-83
2022/04/21 22:57:14;;;;;;;5.35;2.22;;;;;;;;;;7392418;19;20018;-83
2022/04/21 22:59:39;;;;;;;3.25;1.98;;;;;;;;;;7390992;19;20015;-83
2022/04/21 23:02:05;;;;;;;4.07;2.10;;;;;;;;;;7392876;19;20015;-83
2022/04/21 23:04:30;;;;;;;2.83;2.03;;;;;;;;;;7391239;19;20042;-83
2022/04/21 23:06:56;;;;;;;3.13;2.25;;;;;;;;;;7393255;19;20030;-82
2022/04/21 23:14:49;;;;;;;3.00;2.28;;;;;;;;;;7392801;19;20037;-82
2022/04/21 23:17:16;;;;;;;3.63;2.42;;;;;;;;;;7393638;19;19998;-82
2022/04/21 23:19:41;;;;;;;3.30;2.25;;;;;;;;;;7391800;19;20015;-83
2022/04/21 23:22:06;;;;;;;6.82;2.38;;;;;;;;;;7391217;19;20003;-83
2022/04/21 23:24:32;;;;;;;5.63;3.13;;;;;;;;;;7393108;19;20021;-83
2022/04/21 23:27:03;;;;;;;4.20;2.55;;;;;;;;;;7392415;19;20023;-83
2022/04/21 23:29:32;;;;;;;2.83;2.30;;;;;;;;;;7389120;19;20472;-82
2022/04/21 23:31:58;;;;;;;3.08;2.08;;;;;;;;;;7388680;19;20341;-83
2022/04/21 23:34:23;;;;;;;3.30;2.20;;;;;;;;;;7391243;19;20014;-83
2022/04/21 23:36:48;;;;;;;3.60;2.20;;;;;;;;;;7393449;19;20003;-83
2022/04/21 23:39:15;;;;;;;3.30;2.50;;;;;;;;;;7393165;19;20006;-82
2022/04/21 23:41:43;;;;;;;4.22;2.60;;;;;;;;;;7391100;19;20021;-83
2022/04/21 23:44:08;;;;;;;3.33;2.13;;;;;;;;;;7391016;19;20010;-83
2022/04/21 23:46:34;;;;;;;5.30;2.28;;;;;;;;;;7392390;19;20030;-83
2022/04/21 23:48:59;;;;;;;4.47;2.47;;;;;;;;;;7389297;19;20015;-83
2022/04/21 23:51:24;;;;;;;2.88;2.25;;;;;;;;;;7389489;19;20019;-83
2022/04/21 23:53:50;;;;;;;3.75;2.30;;;;;;;;;;7391034;19;20021;-83
2022/04/21 23:56:15;;;;;;;3.72;2.40;;;;;;;;;;7390330;19;20006;-83
2022/04/21 23:58:40;;;;;;;3.58;2.60;;;;;;;;;;7389786;19;20006;-84
